createdAt,value
2023-02-11T00:00:37.728Z,4.67
2023-02-11T00:01:37.715Z,4.72
2023-02-11T00:02:37.690Z,4.72
2023-02-11T00:03:37.755Z,4.77
2023-02-11T00:04:37.668Z,4.78
2023-02-11T00:05:37.657Z,4.74
2023-02-11T00:06:37.685Z,4.71
2023-02-11T00:07:37.632Z,4.74
2023-02-11T00:08:37.633Z,4.72
2023-02-11T00:09:37.627Z,4.72
2023-02-11T00:10:37.600Z,4.75
2023-02-11T00:11:37.597Z,4.77
2023-02-11T00:12:37.580Z,4.81
2023-02-11T00:13:37.594Z,4.82
2023-02-11T00:14:37.561Z,4.81
2023-02-11T00:15:37.552Z,4.84
2023-02-11T00:16:37.568Z,4.85
2023-02-11T00:17:37.525Z,4.85
2023-02-11T00:18:37.515Z,4.87
2023-02-11T00:19:37.514Z,4.87
2023-02-11T00:20:37.489Z,4.88
2023-02-11T00:21:37.485Z,4.90
2023-02-11T00:22:37.494Z,4.87
2023-02-11T00:23:37.456Z,4.88
2023-02-11T00:24:37.445Z,4.87
2023-02-11T00:25:37.433Z,4.90
2023-02-11T00:26:37.430Z,4.93
2023-02-11T00:27:37.421Z,4.93
2023-02-11T00:28:37.405Z,4.95
2023-02-11T00:29:37.387Z,4.95
2023-02-11T00:30:37.508Z,4.95
2023-02-11T00:31:37.565Z,4.93
2023-02-11T00:32:37.367Z,4.93
2023-02-11T00:33:37.380Z,4.92
2023-02-11T00:34:37.331Z,4.93
2023-02-11T00:35:37.314Z,4.95
2023-02-11T00:36:37.308Z,4.95
2023-02-11T00:37:37.298Z,4.96
2023-02-11T00:38:37.336Z,4.97
2023-02-11T00:39:37.276Z,4.97
2023-02-11T00:40:37.271Z,4.96
2023-02-11T00:41:37.259Z,4.95
2023-02-11T00:42:37.236Z,4.97
2023-02-11T00:43:37.231Z,4.97
2023-02-11T00:44:37.212Z,4.97
2023-02-11T00:45:37.207Z,4.99
2023-02-11T00:46:37.273Z,5.03
2023-02-11T00:47:37.214Z,5.00
2023-02-11T00:48:37.188Z,5.02
2023-02-11T00:49:37.154Z,5.05
2023-02-11T00:50:37.160Z,5.06
2023-02-11T00:51:37.137Z,5.08
2023-02-11T00:52:37.127Z,5.10
2023-02-11T00:53:37.108Z,5.13
2023-02-11T00:54:37.121Z,5.13
2023-02-11T00:55:37.088Z,5.15
2023-02-11T00:56:37.077Z,5.14
2023-02-11T00:57:37.074Z,5.17
2023-02-11T00:58:37.062Z,5.17
2023-02-11T00:59:37.056Z,5.17
2023-02-11T01:00:37.038Z,5.20
2023-02-11T01:01:37.072Z,5.18
2023-02-11T01:02:37.026Z,5.21
2023-02-11T01:03:37.003Z,5.23
2023-02-11T01:04:36.998Z,5.26
2023-02-11T01:05:37.133Z,5.28
2023-02-11T01:06:36.973Z,5.26
2023-02-11T01:07:36.966Z,5.26
2023-02-11T01:08:36.962Z,5.28
2023-02-11T01:09:36.938Z,5.29
2023-02-11T01:10:36.961Z,5.29
2023-02-11T01:11:36.925Z,5.29
2023-02-11T01:12:36.899Z,5.31
2023-02-11T01:13:36.887Z,5.33
2023-02-11T01:14:36.880Z,5.33
2023-02-11T01:15:36.926Z,5.33
2023-02-11T01:16:36.882Z,5.32
2023-02-11T01:17:36.854Z,5.33
2023-02-11T01:18:36.838Z,5.32
2023-02-11T01:19:36.822Z,5.33
2023-02-11T01:20:36.819Z,5.35
2023-02-11T01:21:36.805Z,5.36
2023-02-11T01:22:36.795Z,5.39
2023-02-11T01:23:36.778Z,5.38
2023-02-11T01:24:36.788Z,5.35
2023-02-11T01:25:36.757Z,5.36
2023-02-11T01:26:36.779Z,5.38
2023-02-11T01:27:36.730Z,5.40
2023-02-11T01:28:36.826Z,5.39
2023-02-11T01:29:36.721Z,5.36
2023-02-11T01:30:36.705Z,5.35
2023-02-11T01:31:36.813Z,5.36
2023-02-11T01:32:36.683Z,5.35
2023-02-11T01:33:36.676Z,5.32
2023-02-11T01:34:36.678Z,5.32
2023-02-11T01:35:36.645Z,5.32
2023-02-11T01:36:36.638Z,5.33
2023-02-11T01:37:36.625Z,5.35
2023-02-11T01:38:36.636Z,5.38
2023-02-11T01:39:36.602Z,5.36
2023-02-11T01:40:36.592Z,5.38
2023-02-11T01:41:36.586Z,5.40
2023-02-11T01:42:36.598Z,5.42
2023-02-11T01:43:36.576Z,5.40
2023-02-11T01:44:36.546Z,5.40
2023-02-11T01:45:36.529Z,5.42
2023-02-11T01:46:36.657Z,5.40
2023-02-11T01:47:36.514Z,5.40
2023-02-11T01:48:36.497Z,5.43
2023-02-11T01:49:36.618Z,5.43
2023-02-11T01:50:36.486Z,5.43
2023-02-11T01:51:36.462Z,5.43
2023-02-11T01:52:36.457Z,5.46
2023-02-11T01:53:36.439Z,5.46
2023-02-11T01:54:36.439Z,5.46
2023-02-11T01:55:36.417Z,5.49
2023-02-11T01:56:36.404Z,5.50
2023-02-11T01:57:36.407Z,5.54
2023-02-11T01:58:36.412Z,5.52
2023-02-11T01:59:36.373Z,5.54
2023-02-11T02:00:36.402Z,5.52
2023-02-11T02:01:36.375Z,5.54
2023-02-11T02:02:36.355Z,5.52
2023-02-11T02:03:36.401Z,5.52
2023-02-11T02:04:36.324Z,5.54
2023-02-11T02:05:36.303Z,5.54
2023-02-11T02:06:36.302Z,5.54
2023-02-11T02:07:36.292Z,5.52
2023-02-11T02:08:36.283Z,5.52
2023-02-11T02:09:36.266Z,5.54
2023-02-11T02:10:36.254Z,5.54
2023-02-11T02:11:36.249Z,5.54
2023-02-11T02:12:36.230Z,5.57
2023-02-11T02:13:36.226Z,5.57
2023-02-11T02:14:36.233Z,5.58
2023-02-11T02:15:36.195Z,5.58
2023-02-11T02:16:36.242Z,5.59
2023-02-11T02:17:36.167Z,5.62
2023-02-11T02:18:36.155Z,5.65
2023-02-11T02:19:36.157Z,5.66
2023-02-11T02:20:36.132Z,5.65
2023-02-11T02:21:36.123Z,5.65
2023-02-11T02:22:36.117Z,5.66
2023-02-11T02:23:36.106Z,5.66
2023-02-11T02:24:36.101Z,5.65
2023-02-11T02:25:36.080Z,5.65
2023-02-11T02:26:36.065Z,5.66
2023-02-11T02:27:36.080Z,5.66
2023-02-11T02:28:36.050Z,5.67
2023-02-11T02:29:36.031Z,5.69
2023-02-11T02:30:36.071Z,5.69
2023-02-11T02:31:36.054Z,5.70
2023-02-11T02:32:35.993Z,5.70
2023-02-11T02:33:35.983Z,5.70
2023-02-11T02:34:35.984Z,5.70
2023-02-11T02:35:35.968Z,5.72
2023-02-11T02:36:35.956Z,5.70
2023-02-11T02:37:35.940Z,5.72
2023-02-11T02:38:35.932Z,5.70
2023-02-11T02:39:35.920Z,5.73
2023-02-11T02:40:35.920Z,5.73
2023-02-11T02:41:35.905Z,5.70
2023-02-11T02:42:35.883Z,5.70
2023-02-11T02:43:35.876Z,5.70
2023-02-11T02:44:35.872Z,5.72
2023-02-11T02:45:35.856Z,5.70
2023-02-11T02:46:35.897Z,5.69
2023-02-11T02:47:35.827Z,5.70
2023-02-11T02:48:35.869Z,5.72
2023-02-11T02:49:35.817Z,5.73
2023-02-11T02:50:35.792Z,5.77
2023-02-11T02:51:35.784Z,5.77
2023-02-11T02:52:35.776Z,5.77
2023-02-11T02:53:35.767Z,5.76
2023-02-11T02:54:35.757Z,5.76
2023-02-11T02:55:35.749Z,5.77
2023-02-11T02:56:35.733Z,5.79
2023-02-11T02:57:35.722Z,5.79
2023-02-11T02:58:35.711Z,5.80
2023-02-11T02:59:35.704Z,5.80
2023-02-11T03:00:35.783Z,5.82
2023-02-11T03:01:35.674Z,5.84
2023-02-11T03:02:35.719Z,5.85
2023-02-11T03:03:35.715Z,5.87
2023-02-11T03:04:35.642Z,5.88
2023-02-11T03:05:35.638Z,5.90
2023-02-11T03:06:35.624Z,5.91
2023-02-11T03:07:35.616Z,5.90
2023-02-11T03:08:35.598Z,5.91
2023-02-11T03:09:35.585Z,5.93
2023-02-11T03:10:35.570Z,5.94
2023-02-11T03:11:35.570Z,5.94
2023-02-11T03:12:35.556Z,5.91
2023-02-11T03:13:35.579Z,5.91
2023-02-11T03:14:35.570Z,5.93
2023-02-11T03:15:35.515Z,5.91
2023-02-11T03:16:35.547Z,5.90
2023-02-11T03:17:35.498Z,5.91
2023-02-11T03:18:35.505Z,5.94
2023-02-11T03:19:35.484Z,5.93
2023-02-11T03:20:35.467Z,5.94
2023-02-11T03:21:35.453Z,5.94
2023-02-11T03:22:35.441Z,5.94
2023-02-11T03:23:35.424Z,5.97
2023-02-11T03:24:35.422Z,5.98
2023-02-11T03:25:35.408Z,5.98
2023-02-11T03:26:35.398Z,6.02
2023-02-11T03:27:35.385Z,6.02
2023-02-11T03:28:35.465Z,6.00
2023-02-11T03:29:35.357Z,6.00
2023-02-11T03:30:35.363Z,6.00
2023-02-11T03:31:35.447Z,6.02
2023-02-11T03:32:35.331Z,6.03
2023-02-11T03:33:35.320Z,6.02
2023-02-11T03:34:35.431Z,5.98
2023-02-11T03:35:35.308Z,5.97
2023-02-11T03:36:35.285Z,5.98
2023-02-11T03:37:35.267Z,5.98
2023-02-11T03:38:35.255Z,6.00
2023-02-11T03:39:35.250Z,6.00
2023-02-11T03:40:35.262Z,5.98
2023-02-11T03:41:35.227Z,6.00
2023-02-11T03:42:35.220Z,6.00
2023-02-11T03:43:35.205Z,6.00
2023-02-11T03:44:35.194Z,6.02
2023-02-11T03:45:35.229Z,6.02
2023-02-11T03:46:35.169Z,6.03
2023-02-11T03:47:35.155Z,6.02
2023-02-11T03:48:35.156Z,6.03
2023-02-11T03:49:35.144Z,6.03
2023-02-11T03:50:35.185Z,6.03
2023-02-11T03:51:35.123Z,6.06
2023-02-11T03:52:35.098Z,6.06
2023-02-11T03:53:35.101Z,6.08
2023-02-11T03:54:35.087Z,6.09
2023-02-11T03:55:35.084Z,6.11
2023-02-11T03:56:35.056Z,6.08
2023-02-11T03:57:35.049Z,6.08
2023-02-11T03:58:35.036Z,6.06
2023-02-11T03:59:35.025Z,6.03
2023-02-11T04:00:35.028Z,6.03
2023-02-11T04:01:35.091Z,6.03
2023-02-11T04:02:34.993Z,6.02
2023-02-11T04:03:35.014Z,6.03
2023-02-11T04:04:34.966Z,6.03
2023-02-11T04:05:34.960Z,6.02
2023-02-11T04:06:34.975Z,6.02
2023-02-11T04:07:34.941Z,6.05
2023-02-11T04:08:34.928Z,6.09
2023-02-11T04:09:34.922Z,6.11
2023-02-11T04:10:34.913Z,6.11
2023-02-11T04:11:34.890Z,6.12
2023-02-11T04:12:34.891Z,6.12
2023-02-11T04:13:34.864Z,6.12
2023-02-11T04:14:34.855Z,6.13
2023-02-11T04:15:34.863Z,6.15
2023-02-11T04:16:34.928Z,6.16
2023-02-11T04:17:34.824Z,6.15
2023-02-11T04:18:34.923Z,6.16
2023-02-11T04:19:34.809Z,6.18
2023-02-11T04:20:34.799Z,6.18
2023-02-11T04:21:34.808Z,6.19
2023-02-11T04:22:34.796Z,6.21
2023-02-11T04:23:34.761Z,6.21
2023-02-11T04:24:34.741Z,6.19
2023-02-11T04:25:34.738Z,6.18
2023-02-11T04:26:34.728Z,6.19
2023-02-11T04:27:34.727Z,6.18
2023-02-11T04:28:34.747Z,6.19
2023-02-11T04:29:34.693Z,6.19
2023-02-11T04:30:34.685Z,6.19
2023-02-11T04:31:34.773Z,6.16
2023-02-11T04:32:34.657Z,6.21
2023-02-11T04:33:34.652Z,6.18
2023-02-11T04:34:34.634Z,6.18
2023-02-11T04:35:34.635Z,6.18
2023-02-11T04:36:34.621Z,6.19
2023-02-11T04:37:34.604Z,6.18
2023-02-11T04:38:34.622Z,6.16
2023-02-11T04:39:34.585Z,6.13
2023-02-11T04:40:34.579Z,6.13
2023-02-11T04:41:34.575Z,6.15
2023-02-11T04:42:34.557Z,6.12
2023-02-11T04:43:34.543Z,6.13
2023-02-11T04:44:34.530Z,6.16
2023-02-11T04:45:34.537Z,6.15
2023-02-11T04:46:34.504Z,6.16
2023-02-11T04:47:34.494Z,6.19
2023-02-11T04:48:34.483Z,6.19
2023-02-11T04:49:34.475Z,6.19
2023-02-11T04:50:34.467Z,6.21
2023-02-11T04:51:34.472Z,6.21
2023-02-11T04:52:34.452Z,6.24
2023-02-11T04:53:34.428Z,6.23
2023-02-11T04:54:34.455Z,6.24
2023-02-11T04:55:34.407Z,6.26
2023-02-11T04:56:34.402Z,6.26
2023-02-11T04:57:34.392Z,6.26
2023-02-11T04:58:34.375Z,6.24
2023-02-11T04:59:34.376Z,6.24
2023-02-11T05:00:34.359Z,6.24
2023-02-11T05:01:34.363Z,6.27
2023-02-11T05:02:34.337Z,6.27
2023-02-11T05:03:34.320Z,6.29
2023-02-11T05:04:34.344Z,6.26
2023-02-11T05:05:34.299Z,6.27
2023-02-11T05:06:34.292Z,6.29
2023-02-11T05:07:34.279Z,6.26
2023-02-11T05:08:34.281Z,6.26
2023-02-11T05:09:34.254Z,6.26
2023-02-11T05:10:34.274Z,6.27
2023-02-11T05:11:34.239Z,6.26
2023-02-11T05:12:34.226Z,6.26
2023-02-11T05:13:34.215Z,6.26
2023-02-11T05:14:34.205Z,6.27
2023-02-11T05:15:34.193Z,6.29
2023-02-11T05:16:34.244Z,6.29
2023-02-11T05:17:34.177Z,6.27
2023-02-11T05:18:34.168Z,6.29
2023-02-11T05:19:34.165Z,6.29
2023-02-11T05:20:34.133Z,6.27
2023-02-11T05:21:34.123Z,6.29
2023-02-11T05:22:34.122Z,6.30
2023-02-11T05:23:34.113Z,6.30
2023-02-11T05:24:34.096Z,6.31
2023-02-11T05:25:34.084Z,6.31
2023-02-11T05:26:34.101Z,6.31
2023-02-11T05:27:34.056Z,6.31
2023-02-11T05:28:34.129Z,6.31
2023-02-11T05:29:34.046Z,6.33
2023-02-11T05:30:34.104Z,6.34
2023-02-11T05:31:34.021Z,6.33
2023-02-11T05:32:34.010Z,6.34
2023-02-11T05:33:33.988Z,6.34
2023-02-11T05:34:33.999Z,6.36
2023-02-11T05:35:33.975Z,6.36
2023-02-11T05:36:33.961Z,6.36
2023-02-11T05:37:33.986Z,6.34
2023-02-11T05:38:33.952Z,6.36
2023-02-11T05:39:33.928Z,6.36
2023-02-11T05:40:33.921Z,6.34
2023-02-11T05:41:33.903Z,6.34
2023-02-11T05:42:33.922Z,6.36
2023-02-11T05:43:33.880Z,6.36
2023-02-11T05:44:33.870Z,6.33
2023-02-11T05:45:33.880Z,6.33
2023-02-11T05:46:33.897Z,6.31
2023-02-11T05:47:33.853Z,6.33
2023-02-11T05:48:33.829Z,6.31
2023-02-11T05:49:33.816Z,6.31
2023-02-11T05:50:33.803Z,6.29
2023-02-11T05:51:33.796Z,6.30
2023-02-11T05:52:33.783Z,6.30
2023-02-11T05:53:33.779Z,6.31
2023-02-11T05:54:33.776Z,6.30
2023-02-11T05:55:33.753Z,6.33
2023-02-11T05:56:33.745Z,6.33
2023-02-11T05:57:33.729Z,6.33
2023-02-11T05:58:33.739Z,6.34
2023-02-11T05:59:33.718Z,6.34
2023-02-11T06:00:33.715Z,6.36
2023-02-11T06:01:33.692Z,6.36
2023-02-11T06:02:33.781Z,6.36
2023-02-11T06:03:33.701Z,6.34
2023-02-11T06:04:33.659Z,6.34
2023-02-11T06:05:33.645Z,6.33
2023-02-11T06:06:33.636Z,6.34
2023-02-11T06:07:33.626Z,6.36
2023-02-11T06:08:33.616Z,6.39
2023-02-11T06:09:33.597Z,6.37
2023-02-11T06:10:33.596Z,6.39
2023-02-11T06:11:33.600Z,6.36
2023-02-11T06:12:33.570Z,6.37
2023-02-11T06:13:33.554Z,6.39
2023-02-11T06:14:33.579Z,6.37
2023-02-11T06:15:33.532Z,6.37
2023-02-11T06:16:33.541Z,6.37
2023-02-11T06:17:33.531Z,6.39
2023-02-11T06:18:33.507Z,6.42
2023-02-11T06:19:33.497Z,6.41
2023-02-11T06:20:33.478Z,6.42
2023-02-11T06:21:43.335Z,6.41
2023-02-11T06:22:34.940Z,6.39
2023-02-11T06:23:33.447Z,6.41
2023-02-11T06:24:55.007Z,6.41
2023-02-11T06:25:33.432Z,6.41
2023-02-11T06:26:33.413Z,6.42
2023-02-11T06:27:33.412Z,6.45
2023-02-11T06:28:33.523Z,6.45
2023-02-11T06:29:33.380Z,6.45
2023-02-11T06:30:33.420Z,6.48
2023-02-11T06:31:33.512Z,6.49
2023-02-11T06:32:44.038Z,6.49
2023-02-11T06:33:33.354Z,6.51
2023-02-11T06:34:35.333Z,6.49
2023-02-11T06:35:33.317Z,6.51
2023-02-11T06:36:35.305Z,6.49
2023-02-11T06:37:33.301Z,6.51
2023-02-11T06:38:33.285Z,6.49
2023-02-11T06:39:33.273Z,6.51
2023-02-11T06:40:33.271Z,6.54
2023-02-11T06:41:33.252Z,6.54
2023-02-11T06:42:33.242Z,6.55
2023-02-11T06:43:33.242Z,6.56
2023-02-11T06:44:33.222Z,6.56
2023-02-11T06:45:33.215Z,6.56
2023-02-11T06:46:33.325Z,6.56
2023-02-11T06:47:33.194Z,6.56
2023-02-11T06:48:35.174Z,6.60
2023-02-11T06:49:33.173Z,6.59
2023-02-11T06:50:33.178Z,6.62
2023-02-11T06:51:33.146Z,6.62
2023-02-11T06:52:33.140Z,6.62
2023-02-11T06:53:33.129Z,6.62
2023-02-11T06:54:33.112Z,6.63
2023-02-11T06:55:33.119Z,6.62
2023-02-11T06:56:33.090Z,6.63
2023-02-11T06:57:33.091Z,6.63
2023-02-11T06:58:35.082Z,6.59
2023-02-11T06:59:33.056Z,6.55
2023-02-11T07:00:33.047Z,6.56
2023-02-11T07:01:35.105Z,6.59
2023-02-11T07:02:33.077Z,6.60
2023-02-11T07:03:33.019Z,6.62
2023-02-11T07:04:33.035Z,6.62
2023-02-11T07:05:33.111Z,6.63
2023-02-11T07:06:32.981Z,6.63
2023-02-11T07:07:34.300Z,6.66
2023-02-11T07:08:32.967Z,6.67
2023-02-11T07:09:32.951Z,6.72
2023-02-11T07:10:34.940Z,6.72
2023-02-11T07:11:32.937Z,6.72
2023-02-11T07:12:32.915Z,6.72
2023-02-11T07:13:32.913Z,6.72
2023-02-11T07:14:32.894Z,6.73
2023-02-11T07:15:32.882Z,6.73
2023-02-11T07:16:34.928Z,6.74
2023-02-11T07:17:32.867Z,6.74
2023-02-11T07:18:32.883Z,6.77
2023-02-11T07:19:32.844Z,6.78
2023-02-11T07:20:32.828Z,6.80
2023-02-11T07:21:32.830Z,6.80
2023-02-11T07:22:32.809Z,6.81
2023-02-11T07:23:32.793Z,6.82
2023-02-11T07:24:32.791Z,6.85
2023-02-11T07:25:32.773Z,6.87
2023-02-11T07:26:32.772Z,6.88
2023-02-11T07:27:32.756Z,6.90
2023-02-11T07:28:32.842Z,6.90
2023-02-11T07:29:32.737Z,6.88
2023-02-11T07:30:32.730Z,6.90
2023-02-11T07:31:32.838Z,6.91
2023-02-11T07:32:32.701Z,6.91
2023-02-11T07:33:32.696Z,6.91
2023-02-11T07:34:32.757Z,6.96
2023-02-11T07:35:32.675Z,6.97
2023-02-11T07:36:32.664Z,7.00
2023-02-11T07:37:32.655Z,7.00
2023-02-11T07:38:32.653Z,6.99
2023-02-11T07:39:32.618Z,6.99
2023-02-11T07:40:32.618Z,6.99
2023-02-11T07:41:32.604Z,7.00
2023-02-11T07:42:32.596Z,7.00
2023-02-11T07:43:32.589Z,6.99
2023-02-11T07:44:32.565Z,7.03
2023-02-11T07:45:32.558Z,7.06
2023-02-11T07:46:32.730Z,7.06
2023-02-11T07:47:32.529Z,7.07
2023-02-11T07:48:32.527Z,7.11
2023-02-11T07:49:32.523Z,7.15
2023-02-11T07:50:32.520Z,7.21
2023-02-11T07:51:32.514Z,7.25
2023-02-11T07:52:32.479Z,7.28
2023-02-11T07:53:32.470Z,7.28
2023-02-11T07:54:32.459Z,7.33
2023-02-11T07:55:32.439Z,7.34
2023-02-11T07:56:32.435Z,7.34
2023-02-11T07:57:32.422Z,7.36
2023-02-11T07:58:32.413Z,7.36
2023-02-11T07:59:32.404Z,7.37
2023-02-11T08:00:32.382Z,7.39
2023-02-11T08:01:32.379Z,7.34
2023-02-11T08:02:32.478Z,7.34
2023-02-11T08:03:32.356Z,7.36
2023-02-11T08:04:32.344Z,7.37
2023-02-11T08:05:32.342Z,7.40
2023-02-11T08:06:32.353Z,7.40
2023-02-11T08:07:32.307Z,7.42
2023-02-11T08:08:32.292Z,7.42
2023-02-11T08:09:34.500Z,7.43
2023-02-11T08:10:32.276Z,7.43
2023-02-11T08:11:32.263Z,7.46
2023-02-11T08:12:32.254Z,7.49
2023-02-11T08:13:32.244Z,7.49
2023-02-11T08:14:32.224Z,7.49
2023-02-11T08:15:32.218Z,7.52
2023-02-11T08:16:32.257Z,7.54
2023-02-11T08:17:32.202Z,7.54
2023-02-11T08:18:32.183Z,7.52
2023-02-11T08:19:34.876Z,7.54
2023-02-11T08:20:32.159Z,7.55
2023-02-11T08:21:32.157Z,7.55
2023-02-11T08:22:32.160Z,7.58
2023-02-11T08:23:32.116Z,7.60
2023-02-11T08:24:32.128Z,7.61
2023-02-11T08:25:32.104Z,7.64
2023-02-11T08:26:32.093Z,7.67
2023-02-11T08:27:32.081Z,7.70
2023-02-11T08:28:32.166Z,7.72
2023-02-11T08:29:32.064Z,7.72
2023-02-11T08:30:32.053Z,7.72
2023-02-11T08:31:32.123Z,7.72
2023-02-11T08:32:32.018Z,7.70
2023-02-11T08:33:32.010Z,7.75
2023-02-11T08:34:32.002Z,7.76
2023-02-11T08:35:31.978Z,7.76
2023-02-11T08:36:31.966Z,7.77
2023-02-11T08:37:33.107Z,7.79
2023-02-11T08:38:31.971Z,7.80
2023-02-11T08:39:31.938Z,7.79
2023-02-11T08:40:31.921Z,7.80
2023-02-11T08:41:31.910Z,7.79
2023-02-11T08:42:31.903Z,7.79
2023-02-11T08:43:31.899Z,7.82
2023-02-11T08:44:31.882Z,7.83
2023-02-11T08:45:31.881Z,7.82
2023-02-11T08:46:31.964Z,7.82
2023-02-11T08:47:31.848Z,7.80
2023-02-11T08:48:31.838Z,7.82
2023-02-11T08:49:31.823Z,7.82
2023-02-11T08:50:31.814Z,7.85
2023-02-11T08:51:31.800Z,7.85
2023-02-11T08:52:31.785Z,7.85
2023-02-11T08:53:31.777Z,7.86
2023-02-11T08:54:31.785Z,7.87
2023-02-11T08:55:31.757Z,7.87
2023-02-11T08:56:31.772Z,7.86
2023-02-11T08:57:31.727Z,7.85
2023-02-11T08:58:31.730Z,7.87
2023-02-11T08:59:31.716Z,7.90
2023-02-11T09:00:31.697Z,7.91
2023-02-11T09:01:31.824Z,7.93
2023-02-11T09:02:31.753Z,7.93
2023-02-11T09:03:31.664Z,7.93
2023-02-11T09:04:31.654Z,7.93
2023-02-11T09:05:31.644Z,7.91
2023-02-11T09:06:31.625Z,7.91
2023-02-11T09:07:31.614Z,7.94
2023-02-11T09:08:31.615Z,7.93
2023-02-11T09:09:31.599Z,7.94
2023-02-11T09:10:31.612Z,7.94
2023-02-11T09:11:31.584Z,7.97
2023-02-11T09:12:31.563Z,7.97
2023-02-11T09:13:31.557Z,7.98
2023-02-11T09:14:31.543Z,8.01
2023-02-11T09:15:31.540Z,8.03
2023-02-11T09:16:31.548Z,8.04
2023-02-11T09:17:31.504Z,8.03
2023-02-11T09:18:31.492Z,8.01
2023-02-11T09:19:31.481Z,7.98
2023-02-11T09:20:31.471Z,7.95
2023-02-11T09:21:31.489Z,7.94
2023-02-11T09:22:31.455Z,7.93
2023-02-11T09:23:31.445Z,7.95
2023-02-11T09:24:31.428Z,7.95
2023-02-11T09:25:31.421Z,7.94
2023-02-11T09:26:31.449Z,7.94
2023-02-11T09:27:31.398Z,7.95
2023-02-11T09:28:31.410Z,7.95
2023-02-11T09:29:31.379Z,7.95
2023-02-11T09:30:31.496Z,7.95
2023-02-11T09:31:31.619Z,7.97
2023-02-11T09:32:31.344Z,7.97
2023-02-11T09:33:31.325Z,7.95
2023-02-11T09:34:31.320Z,7.95
2023-02-11T09:35:31.321Z,7.95
2023-02-11T09:36:31.294Z,7.97
2023-02-11T09:37:31.285Z,7.98
2023-02-11T09:38:31.268Z,8.00
2023-02-11T09:39:31.267Z,8.01
2023-02-11T09:40:31.245Z,8.01
2023-02-11T09:41:31.247Z,8.03
2023-02-11T09:42:31.252Z,8.00
2023-02-11T09:43:31.230Z,7.98
2023-02-11T09:44:31.223Z,8.00
2023-02-11T09:45:31.209Z,8.00
2023-02-11T09:46:31.296Z,7.98
2023-02-11T09:47:31.175Z,7.98
2023-02-11T09:48:31.153Z,8.00
2023-02-11T09:49:31.153Z,8.01
2023-02-11T09:50:31.151Z,8.01
2023-02-11T09:51:31.124Z,8.03
2023-02-11T09:52:31.120Z,8.01
2023-02-11T09:53:31.096Z,8.03
2023-02-11T09:54:31.087Z,8.05
2023-02-11T09:55:31.100Z,8.09
2023-02-11T09:56:31.061Z,8.11
2023-02-11T09:57:31.064Z,8.15
2023-02-11T09:58:31.065Z,8.16
2023-02-11T09:59:31.028Z,8.18
2023-02-11T10:00:31.025Z,8.18
2023-02-11T10:01:31.065Z,8.20
2023-02-11T10:02:31.017Z,8.16
2023-02-11T10:03:30.997Z,8.13
2023-02-11T10:04:31.128Z,8.12
2023-02-11T10:05:30.968Z,8.15
2023-02-11T10:06:30.955Z,8.16
2023-02-11T10:07:30.968Z,8.19
2023-02-11T10:08:30.935Z,8.20
2023-02-11T10:09:30.929Z,8.22
2023-02-11T10:10:30.914Z,8.19
2023-02-11T10:11:32.334Z,8.19
2023-02-11T10:12:30.897Z,8.19
2023-02-11T10:13:30.879Z,8.23
2023-02-11T10:14:30.897Z,8.23
2023-02-11T10:15:30.889Z,8.25
2023-02-11T10:16:30.846Z,8.27
2023-02-11T10:17:30.826Z,8.28
2023-02-11T10:18:30.822Z,8.30
2023-02-11T10:19:30.803Z,8.27
2023-02-11T10:20:30.793Z,8.23
2023-02-11T10:21:30.788Z,8.22
2023-02-11T10:22:30.780Z,8.20
2023-02-11T10:23:30.770Z,8.20
2023-02-11T10:24:30.752Z,8.19
2023-02-11T10:25:30.735Z,8.18
2023-02-11T10:26:30.730Z,8.18
2023-02-11T10:27:30.730Z,8.19
2023-02-11T10:28:30.773Z,8.22
2023-02-11T10:29:30.695Z,8.22
2023-02-11T10:30:30.748Z,8.25
2023-02-11T10:31:30.867Z,8.25
2023-02-11T10:32:30.654Z,8.25
2023-02-11T10:33:30.651Z,8.28
2023-02-11T10:34:30.638Z,8.30
2023-02-11T10:35:30.628Z,8.30
2023-02-11T10:36:30.620Z,8.31
2023-02-11T10:37:30.595Z,8.33
2023-02-11T10:38:30.592Z,8.34
2023-02-11T10:39:30.602Z,8.38
2023-02-11T10:40:30.568Z,8.38
2023-02-11T10:41:30.556Z,8.38
2023-02-11T10:42:30.537Z,8.39
2023-02-11T10:43:30.528Z,8.41
2023-02-11T10:44:30.520Z,8.41
2023-02-11T10:45:30.502Z,8.41
2023-02-11T10:46:30.634Z,8.37
2023-02-11T10:47:30.486Z,8.37
2023-02-11T10:48:30.468Z,8.38
2023-02-11T10:49:30.458Z,8.41
2023-02-11T10:50:30.447Z,8.42
2023-02-11T10:51:30.443Z,8.42
2023-02-11T10:52:30.434Z,8.38
2023-02-11T10:53:30.418Z,8.41
2023-02-11T10:54:30.413Z,8.41
2023-02-11T10:55:30.396Z,8.42
2023-02-11T10:56:30.383Z,8.44
2023-02-11T10:57:30.370Z,8.44
2023-02-11T10:58:30.356Z,8.42
2023-02-11T10:59:30.370Z,8.44
2023-02-11T11:00:30.337Z,8.46
2023-02-11T11:01:30.340Z,8.44
2023-02-11T11:02:30.330Z,8.46
2023-02-11T11:03:30.307Z,8.46
2023-02-11T11:04:30.528Z,8.49
2023-02-11T11:05:30.279Z,8.49
2023-02-11T11:06:30.263Z,8.49
2023-02-11T11:07:30.249Z,8.50
2023-02-11T11:08:30.239Z,8.53
2023-02-11T11:09:30.227Z,8.50
2023-02-11T11:10:30.216Z,8.53
2023-02-11T11:11:30.218Z,8.53
2023-02-11T11:12:30.195Z,8.53
2023-02-11T11:13:30.188Z,8.52
2023-02-11T11:14:30.176Z,8.52
2023-02-11T11:15:30.167Z,8.52
2023-02-11T11:16:30.189Z,8.50
2023-02-11T11:17:30.138Z,8.50
2023-02-11T11:18:30.157Z,8.52
2023-02-11T11:19:30.120Z,8.49
2023-02-11T11:20:30.111Z,8.49
2023-02-11T11:21:30.117Z,8.49
2023-02-11T11:22:30.086Z,8.47
2023-02-11T11:23:30.070Z,8.47
2023-02-11T11:24:30.064Z,8.50
2023-02-11T11:25:30.051Z,8.50
2023-02-11T11:26:30.041Z,8.52
2023-02-11T11:27:30.030Z,8.50
2023-02-11T11:28:30.107Z,8.50
2023-02-11T11:29:30.010Z,8.50
2023-02-11T11:30:30.098Z,8.50
2023-02-11T11:31:30.093Z,8.53
2023-02-11T11:32:29.980Z,8.53
2023-02-11T11:33:29.966Z,8.56
2023-02-11T11:34:29.993Z,8.56
2023-02-11T11:35:29.949Z,8.59
2023-02-11T11:36:29.928Z,8.60
2023-02-11T11:37:29.915Z,8.60
2023-02-11T11:38:29.897Z,8.59
2023-02-11T11:39:29.897Z,8.60
2023-02-11T11:40:29.872Z,8.62
2023-02-11T11:41:29.868Z,8.65
2023-02-11T11:42:29.856Z,8.65
2023-02-11T11:43:29.845Z,8.60
2023-02-11T11:44:29.855Z,8.63
2023-02-11T11:45:29.826Z,8.62
2023-02-11T11:46:29.886Z,8.63
2023-02-11T11:47:29.798Z,8.63
2023-02-11T11:48:29.788Z,8.67
2023-02-11T11:49:29.770Z,8.67
2023-02-11T11:50:29.786Z,8.68
2023-02-11T11:51:29.755Z,8.70
2023-02-11T11:52:29.738Z,8.74
2023-02-11T11:53:29.736Z,8.75
2023-02-11T11:54:29.717Z,8.72
2023-02-11T11:55:29.704Z,8.74
2023-02-11T11:56:29.696Z,8.75
2023-02-11T11:57:29.696Z,8.75
2023-02-11T11:58:29.695Z,8.75
2023-02-11T11:59:29.663Z,8.72
2023-02-11T12:00:29.663Z,8.71
2023-02-11T12:01:29.667Z,8.74
2023-02-11T12:02:29.652Z,8.75
2023-02-11T12:03:29.706Z,8.74
2023-02-11T12:04:29.638Z,8.71
2023-02-11T12:05:29.651Z,8.67
2023-02-11T12:06:29.604Z,8.68
2023-02-11T12:07:29.576Z,8.71
2023-02-11T12:08:29.572Z,8.72
2023-02-11T12:09:29.557Z,8.72
2023-02-11T12:10:29.544Z,8.70
2023-02-11T12:11:29.535Z,8.68
2023-02-11T12:12:29.518Z,8.70
2023-02-11T12:13:29.515Z,8.74
2023-02-11T12:14:29.488Z,8.77
2023-02-11T12:15:29.486Z,8.77
2023-02-11T12:16:29.501Z,8.80
2023-02-11T12:17:29.461Z,8.80
2023-02-11T12:18:29.450Z,8.78
2023-02-11T12:19:29.439Z,8.80
2023-02-11T12:20:29.421Z,8.83
2023-02-11T12:21:29.424Z,8.85
2023-02-11T12:22:29.433Z,8.85
2023-02-11T12:23:29.404Z,8.85
2023-02-11T12:24:29.401Z,8.86
2023-02-11T12:25:29.367Z,8.88
2023-02-11T12:26:29.358Z,8.90
2023-02-11T12:27:29.352Z,8.88
2023-02-11T12:28:29.448Z,8.88
2023-02-11T12:29:29.326Z,8.89
2023-02-11T12:30:29.389Z,8.88
2023-02-11T12:31:29.460Z,8.86
2023-02-11T12:32:29.293Z,8.88
2023-02-11T12:33:29.282Z,8.90
2023-02-11T12:34:29.271Z,8.88
2023-02-11T12:35:29.261Z,8.90
2023-02-11T12:36:29.253Z,8.89
2023-02-11T12:37:29.239Z,8.85
2023-02-11T12:38:29.259Z,8.86
2023-02-11T12:39:29.214Z,8.88
2023-02-11T12:40:29.195Z,8.90
2023-02-11T12:41:29.185Z,8.93
2023-02-11T12:42:29.178Z,8.92
2023-02-11T12:43:29.168Z,8.92
2023-02-11T12:44:29.158Z,8.95
2023-02-11T12:45:29.154Z,8.96
2023-02-11T12:46:29.164Z,8.99
2023-02-11T12:47:29.122Z,8.99
2023-02-11T12:48:29.118Z,9.03
2023-02-11T12:49:29.092Z,9.03
2023-02-11T12:50:29.093Z,9.01
2023-02-11T12:51:29.079Z,9.03
2023-02-11T12:52:29.059Z,9.03
2023-02-11T12:53:29.058Z,9.04
2023-02-11T12:54:29.073Z,9.06
2023-02-11T12:55:29.031Z,9.06
2023-02-11T12:56:29.021Z,9.06
2023-02-11T12:57:29.013Z,9.04
2023-02-11T12:58:42.905Z,9.01
2023-02-11T12:59:28.997Z,8.98
2023-02-11T13:00:28.968Z,8.98
2023-02-11T13:01:29.082Z,8.98
2023-02-11T13:02:29.052Z,8.96
2023-02-11T13:03:28.945Z,8.98
2023-02-11T13:04:28.922Z,8.99
2023-02-11T13:05:28.921Z,9.03
2023-02-11T13:06:28.915Z,9.07
2023-02-11T13:07:28.891Z,9.07
2023-02-11T13:08:28.887Z,9.08
2023-02-11T13:09:28.874Z,9.10
2023-02-11T13:10:28.887Z,9.10
2023-02-11T13:11:28.856Z,9.14
2023-02-11T13:12:28.842Z,9.14
2023-02-11T13:13:28.844Z,9.14
2023-02-11T13:14:28.816Z,9.14
2023-02-11T13:15:28.819Z,9.15
2023-02-11T13:16:28.843Z,9.17
2023-02-11T13:17:28.788Z,9.14
2023-02-11T13:18:28.772Z,9.13